METAR Data
IDs: Format: Raw Decoded Include TAF

Data at: 2353 UTC 25 Oct 2021

PASY 252255Z 30014KT 20SM BKN023 BKN031 06/02 A3000 RMK AO2A SHRAB2205E2230 CIG021V027 SLP160 RVRNO PNO $
PASY 252229Z 30015KT 20SM SCT022 BKN034 BKN280 06/03 A2999 RMK AO2A SHRAB2205E2230 SLP158 RVRNO PNO $
PASY 252206Z 32018G23KT 20SM -SHRA BKN022 BKN034 06/03 A2998 RMK AO2A SHRAB2205 SLP155 RVRNO PNO $
PASY 252155Z 31016KT 20SM SCT022 BKN034 06/03 A2998 RMK AO2A SLP154 T00660026 RVRNO PNO $
PASY 252055Z 33015KT 20SM VCSHRA SCT025 SCT035 05/02 A2995 RMK AO2A VIS LWR SW RAB2012E2033 SLP144 60000 T00460021 52027 RVRNO PNO $
PASY 252042Z 33016G20KT 20SM SCT025 BKN035 05/02 A2994 RMK AO2A RAB2012E2033 SLP141 RVRNO PNO $
PASY 252015Z 34012G22KT 20SM -SHRA SCT027 BKN032 05/02 A2994 RMK AO2A RAB2012 SLP140 RVRNO PNO $
PASY 251955Z 32015KT 20SM FEW024 SCT030 05/01 A2993 RMK AO2A SLP137 T00420007 RVRNO PNO $
PASY 251855Z 33013KT 20SM FEW021 SCT026 BKN039 04/02 A2990 RMK AO2A SLP126 T00380014 RVRNO PNO $
PASY 251808Z 32014KT 7SM SCT018 BKN026 BKN038 04/02 A2987 RMK AO2A RAB1736E1745 SCT018 V BKN SLP117 60018 42-HR ESTMD PCPN T00420019 10044 22017 53021 RVRNO PNO $
PASY 251655Z 32013KT 7SM FEW020 04/02 A2984 RMK AO2A SLP107 T00380016 RVRNO PNO FZRANO $
PASY 251558Z 32008KT 7SM SCT020 03/01 A2982 RMK AO2A SLP100 T00320013 RVRNO PNO FZRANO $
PASY 251458Z 33009KT 7SM FEW019 03/01 A2980 RMK AO2A SLP095 6//// T00300011 53015 RVRNO PNO FZRANO $
PASY 251258Z 32005KT 7SM FEW019 03/01 A2978 RMK AO2A SLP086 T00260010 RVRNO PNO FZRANO $
PASY 251155Z 29007KT 7SM CLR 03/01 A2976 RMK AO2A SLP081 6//// T00300010 10046 20028 51010 RVRN PNO FZRANO $
PASY 251058Z 30007KT 7SM FEW022 03/02 A2976 RMK AO2A SLP079 T00300017 RVRNO PNO FZRANO $
PASY 250958Z COR 31006KT 7SM SCT019 03/02 A2974 RMK AO2A SLP073 T00350017 RVRNO PNO FZRANO $ COR 1107
PASY 250940Z 25009KT 7SM SCT016 04/02 A2974 RMK AO2A SLP071 RVRNO PNO FZRANO $